Time;durP1;ratioP1;P1;durP2;ratioP2;P2;SDS_P1;SDS_P2;PMS_P1;PMS_P2;Temp;Humidity;BMP_temperature;BMP_pressure;BME280_temperature;BME280_humidity;BME280_pressure;Samples;Min_cycle;Max_cycle;Signal;HPM_P1;HPM_P2
2022/02/17 00:00:58;;;;;;;3.78;1.50;;;;;;;9.92;100.00;97192.28;6068460;23;20022;-83
2022/02/17 00:03:25;;;;;;;3.95;1.65;;;;;;;10.00;100.00;97212.81;6067948;23;20335;-84
2022/02/17 00:05:52;;;;;;;1.58;1.25;;;;;;;10.03;100.00;97207.31;6069513;23;20026;-83
2022/02/17 00:08:19;;;;;;;1.60;1.40;;;;;;;10.13;100.00;97205.69;6067746;23;20026;-83
2022/02/17 00:10:46;;;;;;;2.15;1.40;;;;;;;10.19;100.00;97204.41;6068788;23;20022;-84
2022/02/17 00:13:13;;;;;;;1.45;0.90;;;;;;;10.19;100.00;97183.31;6044228;23;20110;-85
2022/02/17 00:15:40;;;;;;;1.55;1.10;;;;;;;10.20;100.00;97203.44;6070336;23;20030;-84
2022/02/17 00:18:12;;;;;;;1.30;1.10;;;;;;;10.23;100.00;97195.31;6068024;23;20084;-85
2022/02/17 00:20:38;;;;;;;2.03;1.00;;;;;;;10.24;100.00;97191.72;6093158;23;20030;-84
2022/02/17 00:23:05;;;;;;;1.75;1.20;;;;;;;10.29;100.00;97200.16;6068281;23;20403;-83
2022/02/17 00:25:32;;;;;;;2.13;1.13;;;;;;;10.38;100.00;97173.91;6092955;23;20050;-84
2022/02/17 00:27:58;;;;;;;1.42;1.23;;;;;;;10.39;100.00;97154.47;6092499;23;20034;-83
2022/02/17 00:30:25;;;;;;;1.98;1.15;;;;;;;10.54;100.00;97183.31;6069431;23;20033;-84
2022/02/17 00:32:52;;;;;;;2.10;1.20;;;;;;;10.66;100.00;97335.50;6068171;23;20878;-85
2022/02/17 00:35:19;;;;;;;2.85;0.73;;;;;;;10.60;100.00;97338.59;6069106;23;20026;-82
2022/02/17 00:37:45;;;;;;;3.33;1.00;;;;;;;9.91;100.00;97446.34;6044473;23;20030;-83
2022/02/17 00:40:12;;;;;;;3.00;0.80;;;;;;;9.62;100.00;97442.25;6092531;23;20018;-82
2022/02/17 00:42:39;;;;;;;2.58;1.25;;;;;;;9.34;100.00;97388.78;6115469;23;20431;-82
2022/02/17 00:45:07;;;;;;;2.75;0.85;;;;;;;8.97;100.00;97414.06;6045411;23;20022;-82
2022/02/17 00:47:33;;;;;;;2.63;1.38;;;;;;;8.83;100.00;97409.75;6067658;23;20030;-83
2022/02/17 00:50:00;;;;;;;1.58;0.93;;;;;;;8.71;100.00;97392.94;6069329;23;20336;-82
2022/02/17 00:52:27;;;;;;;3.30;1.20;;;;;;;8.60;100.00;97386.69;6069133;23;20421;-83
2022/02/17 00:54:54;;;;;;;4.72;1.05;;;;;;;8.42;100.00;97386.94;6069218;23;20522;-84
2022/02/17 00:57:24;;;;;;;3.73;1.13;;;;;;;8.36;100.00;97354.91;6070062;23;20022;-84
2022/02/17 00:59:50;;;;;;;4.57;1.47;;;;;;;8.30;100.00;97366.63;6044104;23;20418;-82
2022/02/17 01:02:17;;;;;;;2.63;1.20;;;;;;;8.22;100.00;97352.28;6092360;23;20029;-84
2022/02/17 01:04:44;;;;;;;5.73;1.73;;;;;;;8.20;100.00;97344.50;6091268;23;20030;-83
2022/02/17 01:07:11;;;;;;;2.47;1.10;;;;;;;8.09;100.00;97333.81;6045464;23;20026;-84
2022/02/17 01:09:38;;;;;;;3.57;1.07;;;;;;;8.11;100.00;97339.81;6088853;23;20030;-84
2022/02/17 01:12:05;;;;;;;1.67;0.83;;;;;;;8.03;100.00;97363.97;6089486;23;20026;-83
2022/02/17 01:14:32;;;;;;;3.57;0.90;;;;;;;8.02;100.00;97411.38;6041502;23;20087;-84
2022/02/17 01:16:59;;;;;;;2.83;1.63;;;;;;;8.00;100.00;97406.22;6043442;23;20038;-82
2022/02/17 01:19:26;;;;;;;1.63;0.90;;;;;;;7.99;100.00;97406.28;6041915;23;20049;-82
2022/02/17 01:21:53;;;;;;;4.07;1.00;;;;;;;7.97;100.00;97430.06;6066889;23;20455;-83
2022/02/17 01:24:20;;;;;;;1.70;0.90;;;;;;;8.01;100.00;97423.69;6089436;23;20358;-82
2022/02/17 01:26:47;;;;;;;2.33;1.00;;;;;;;8.07;100.00;97456.63;6090364;23;20499;-84
2022/02/17 01:29:13;;;;;;;3.40;1.30;;;;;;;8.04;100.00;97462.06;6089313;23;20023;-83
2022/02/17 01:31:41;;;;;;;2.30;1.30;;;;;;;8.02;100.00;97430.63;6067043;23;20085;-84
2022/02/17 01:34:08;;;;;;;3.37;1.03;;;;;;;8.05;100.00;97430.44;6041968;23;20040;-84
2022/02/17 01:36:35;;;;;;;2.50;0.97;;;;;;;8.02;100.00;97427.16;6068095;23;20853;-84
2022/02/17 01:39:03;;;;;;;3.23;1.27;;;;;;;8.00;100.00;97419.38;6042238;23;20030;-84
2022/02/17 01:41:30;;;;;;;3.23;1.43;;;;;;;8.03;100.00;97376.25;6090177;23;20022;-83
2022/02/17 01:44:02;;;;;;;3.00;1.00;;;;;;;8.06;100.00;97334.00;6041915;23;20030;-82
2022/02/17 01:46:33;;;;;;;3.37;0.87;;;;;;;8.07;100.00;97320.78;6067232;23;20074;-83
2022/02/17 01:49:00;;;;;;;2.63;0.93;;;;;;;8.06;100.00;97362.91;6064905;23;20030;-83
2022/02/17 01:51:30;;;;;;;3.67;1.00;;;;;;;8.11;100.00;97384.53;6089878;23;20033;-83
2022/02/17 01:54:00;;;;;;;5.27;1.10;;;;;;;8.11;100.00;97389.78;6040846;23;20030;-83
2022/02/17 01:56:29;;;;;;;3.70;1.20;;;;;;;8.10;100.00;97383.69;6066607;23;20083;-83
2022/02/17 01:58:57;;;;;;;5.53;1.30;;;;;;;8.04;100.00;97356.91;6088182;23;20085;-84
2022/02/17 02:01:27;;;;;;;1.80;1.00;;;;;;;8.01;100.00;97365.84;6066751;23;20050;-84
2022/02/17 02:03:54;;;;;;;3.37;0.97;;;;;;;8.03;100.00;97369.22;6041870;23;20026;-82
2022/02/17 02:06:22;;;;;;;1.63;0.90;;;;;;;8.03;100.00;97365.75;6068662;23;20450;-84
2022/02/17 02:08:51;;;;;;;2.93;1.17;;;;;;;8.05;100.00;97377.00;6088973;23;20041;-83
2022/02/17 02:11:18;;;;;;;3.93;1.13;;;;;;;7.97;100.00;97379.28;6066593;23;20030;-83
2022/02/17 02:13:45;;;;;;;2.87;1.23;;;;;;;7.99;100.00;97382.63;6065610;23;20030;-83
2022/02/17 02:16:12;;;;;;;4.65;1.10;;;;;;;8.03;100.00;97389.41;6066908;23;20113;-83
2022/02/17 02:18:55;;;;;;;3.47;1.93;;;;;;;8.11;100.00;97385.34;6073362;23;20110;-83
2022/02/17 02:21:23;;;;;;;2.43;1.07;;;;;;;8.09;100.00;97386.41;6068551;23;20026;-83
2022/02/17 02:23:51;;;;;;;5.27;1.27;;;;;;;8.13;100.00;97378.22;6043576;23;20026;-82
2022/02/17 02:26:18;;;;;;;5.20;1.40;;;;;;;8.09;100.00;97368.84;6068610;23;20037;-84
2022/02/17 02:28:46;;;;;;;2.90;1.30;;;;;;;8.05;100.00;97390.16;6067893;23;20026;-82
2022/02/17 02:31:13;;;;;;;1.90;1.10;;;;;;;8.07;100.00;97391.75;6091358;23;20530;-82
2022/02/17 02:33:42;;;;;;;4.20;1.23;;;;;;;8.10;100.00;97396.81;6091079;23;20026;-83
2022/02/17 02:36:10;;;;;;;3.57;1.30;;;;;;;8.17;100.00;97407.81;6093609;23;20046;-82
2022/02/17 02:38:56;;;;;;;5.65;1.25;;;;;;;8.15;100.00;97399.16;6071327;23;20563;-83
2022/02/17 02:41:23;;;;;;;2.13;1.33;;;;;;;8.12;100.00;97371.28;6067625;23;20026;-83
2022/02/17 02:43:50;;;;;;;3.07;1.23;;;;;;;8.06;100.00;97391.84;6067451;23;20022;-84
2022/02/17 02:46:17;;;;;;;3.33;1.27;;;;;;;8.04;100.00;97391.09;6069230;23;20026;-83
2022/02/17 02:48:44;;;;;;;3.57;1.20;;;;;;;8.05;100.00;97390.16;6091177;23;20466;-84
2022/02/17 02:51:11;;;;;;;5.17;1.70;;;;;;;8.04;100.00;97376.16;6091868;23;20014;-83
2022/02/17 02:53:37;;;;;;;5.68;1.55;;;;;;;8.10;100.00;97377.56;6043742;23;20026;-84
2022/02/17 02:56:04;;;;;;;5.93;1.63;;;;;;;8.03;100.00;97373.63;6122117;23;20026;-84
2022/02/17 02:58:31;;;;;;;5.17;1.77;;;;;;;7.95;100.00;97376.75;6045515;23;20552;-84
2022/02/17 03:00:58;;;;;;;5.50;2.27;;;;;;;7.99;100.00;97406.28;6069793;23;20026;-85
2022/02/17 03:03:27;;;;;;;5.40;1.83;;;;;;;8.00;100.00;97382.56;6115571;23;20429;-83
2022/02/17 03:05:54;;;;;;;9.27;1.77;;;;;;;7.98;100.00;97380.94;6069326;23;20031;-84
2022/02/17 03:08:20;;;;;;;6.23;2.57;;;;;;;8.01;100.00;97378.16;6043535;23;20049;-83
2022/02/17 03:10:47;;;;;;;11.13;3.20;;;;;;;7.89;100.00;97377.13;6069653;23;20022;-83
2022/02/17 03:13:14;;;;;;;6.47;2.10;;;;;;;7.85;100.00;97384.34;6044865;23;20033;-84
2022/02/17 03:15:42;;;;;;;6.33;2.03;;;;;;;7.83;100.00;97388.03;6070123;23;20049;-84
2022/02/17 03:18:08;;;;;;;5.77;2.50;;;;;;;7.94;100.00;97387.34;6091529;23;20030;-84
2022/02/17 03:20:37;;;;;;;8.13;2.30;;;;;;;7.93;100.00;97375.16;6067407;23;20019;-83
2022/02/17 03:23:03;;;;;;;7.77;2.23;;;;;;;8.01;100.00;97393.94;6090819;23;20452;-83
2022/02/17 03:25:30;;;;;;;7.47;2.27;;;;;;;7.99;100.00;97382.63;6117062;23;20028;-84
2022/02/17 03:27:57;;;;;;;10.53;2.63;;;;;;;8.01;100.00;97384.25;6043428;23;20026;-83
2022/02/17 03:30:23;;;;;;;7.57;2.27;;;;;;;8.00;100.00;97374.69;6070049;23;20118;-84
2022/02/17 03:32:50;;;;;;;4.10;2.57;;;;;;;7.99;100.00;97366.88;6092375;23;20033;-85
2022/02/17 03:35:17;;;;;;;6.17;1.70;;;;;;;7.95;100.00;97371.47;6092894;23;20458;-84
2022/02/17 03:37:44;;;;;;;7.20;1.67;;;;;;;7.93;100.00;97359.38;6043427;23;20027;-84
2022/02/17 03:40:11;;;;;;;7.30;1.70;;;;;;;7.90;100.00;97363.91;6068134;23;20018;-85
2022/02/17 03:42:38;;;;;;;6.43;2.00;;;;;;;7.87;100.00;97353.56;6066074;23;20030;-83
2022/02/17 03:45:06;;;;;;;6.40;1.90;;;;;;;7.96;100.00;97362.66;6021969;23;20101;-83
2022/02/17 03:47:33;;;;;;;5.43;1.53;;;;;;;7.97;100.00;97355.63;6044444;23;20034;-85
2022/02/17 03:50:00;;;;;;;5.43;1.77;;;;;;;7.94;100.00;97363.69;6068404;23;20743;-84
2022/02/17 03:52:30;;;;;;;6.13;2.60;;;;;;;7.96;100.00;97382.84;6067737;23;20018;-83
2022/02/17 03:54:57;;;;;;;6.30;2.00;;;;;;;7.93;100.00;97362.00;6048249;23;20026;-83
2022/02/17 03:57:23;;;;;;;7.17;2.00;;;;;;;7.99;100.00;97366.88;6065719;23;20026;-83
2022/02/17 03:59:50;;;;;;;4.27;1.90;;;;;;;7.98;100.00;97408.09;6045560;23;20399;-84
2022/02/17 04:02:17;;;;;;;4.30;1.77;;;;;;;7.97;97.65;97429.22;6070262;23;20517;-84
2022/02/17 04:04:44;;;;;;;3.27;1.67;;;;;;;7.80;100.00;97391.66;6092188;23;20026;-84
2022/02/17 05:48:50;;;;;;;9.80;2.27;;;;;;;6.40;99.85;97497.81;5101779;27;20411;-78
2022/02/17 05:51:20;;;;;;;6.17;2.53;;;;;;;6.41;98.22;97472.44;5073682;28;20105;-79
2022/02/17 05:53:48;;;;;;;5.90;2.10;;;;;;;6.42;96.41;97464.47;5082842;28;20181;-80
2022/02/17 05:56:16;;;;;;;6.63;2.27;;;;;;;6.47;95.03;97493.91;5092666;28;20113;-81
2022/02/17 05:58:45;;;;;;;5.60;2.37;;;;;;;6.47;94.05;97499.16;5105231;28;20043;-82
2022/02/17 06:01:15;;;;;;;6.83;2.20;;;;;;;6.46;94.75;97515.81;5072555;28;20040;-81
2022/02/17 06:03:45;;;;;;;5.53;2.33;;;;;;;6.57;90.80;97498.66;5094397;28;20131;-82
2022/02/17 06:06:12;;;;;;;7.40;2.10;;;;;;;6.60;90.62;97503.72;5099692;28;20065;-81
2022/02/17 06:08:42;;;;;;;11.03;3.10;;;;;;;6.67;90.14;97497.22;5079486;28;20044;-82
2022/02/17 06:11:09;;;;;;;9.03;2.10;;;;;;;6.67;89.63;97507.72;5097309;28;20044;-81
2022/02/17 06:13:39;;;;;;;10.07;2.47;;;;;;;6.78;88.61;97510.56;5099185;28;20040;-82
2022/02/17 06:16:10;;;;;;;6.10;2.20;;;;;;;6.82;86.54;97511.28;5076835;28;20032;-82
2022/02/17 06:18:38;;;;;;;6.53;2.20;;;;;;;6.78;87.25;97514.03;5093219;28;20503;-81
2022/02/17 06:21:06;;;;;;;10.37;1.90;;;;;;;6.88;85.53;97524.03;5076985;28;20552;-82
2022/02/17 06:23:34;;;;;;;8.93;2.63;;;;;;;6.91;83.60;97506.34;5080058;28;20517;-83
2022/02/17 06:26:01;;;;;;;6.10;2.23;;;;;;;6.90;86.88;97504.66;5078081;28;20043;-83
2022/02/17 06:28:28;;;;;;;6.90;2.43;;;;;;;6.93;86.06;97507.09;5082921;28;20044;-82
2022/02/17 06:30:56;;;;;;;10.63;2.97;;;;;;;6.95;86.24;97520.13;5077944;28;20578;-82
2022/02/17 06:33:27;;;;;;;8.60;2.37;;;;;;;6.96;85.01;97506.06;5085084;28;20066;-82
2022/02/17 06:35:54;;;;;;;8.30;2.47;;;;;;;6.97;83.54;97511.25;5083733;28;20577;-81
2022/02/17 06:38:21;;;;;;;5.87;2.47;;;;;;;6.96;83.51;97499.06;5085938;28;20044;-82
2022/02/17 06:40:48;;;;;;;9.50;2.33;;;;;;;7.03;83.05;97510.06;5076506;28;20032;-81
2022/02/17 06:43:15;;;;;;;9.70;2.43;;;;;;;7.04;81.39;97507.34;5077910;28;20051;-82
2022/02/17 06:45:42;;;;;;;5.47;2.03;;;;;;;7.10;78.30;97514.03;5060308;28;20044;-81
2022/02/17 06:48:14;;;;;;;8.13;2.53;;;;;;;7.18;81.31;97508.34;5074259;28;20047;-81
2022/02/17 06:50:41;;;;;;;8.87;2.80;;;;;;;7.19;79.99;97529.25;5064440;28;20047;-82
2022/02/17 06:53:10;;;;;;;7.87;2.07;;;;;;;7.17;80.68;97501.41;5066524;28;20048;-82
2022/02/17 06:55:37;;;;;;;8.63;2.30;;;;;;;7.21;79.58;97505.53;5062240;28;20052;-81
2022/02/17 06:58:04;;;;;;;6.77;2.50;;;;;;;7.23;80.12;97515.03;5064307;28;20090;-82
2022/02/17 07:00:32;;;;;;;7.80;3.00;;;;;;;7.29;80.82;97492.81;5061161;28;20044;-81
2022/02/17 07:02:59;;;;;;;5.43;2.20;;;;;;;7.36;81.62;97517.78;5061516;28;20048;-82
2022/02/17 07:05:26;;;;;;;4.87;2.50;;;;;;;7.36;78.71;97516.94;5060559;28;20064;-82
2022/02/17 07:07:55;;;;;;;6.80;2.37;;;;;;;7.40;79.55;97507.94;5075430;28;20040;-81
2022/02/17 07:13:10;;;;;;;9.77;3.07;;;;;;;7.40;78.46;97534.19;5069243;28;20051;-80
2022/02/17 07:15:37;;;;;;;10.93;2.83;;;;;;;7.40;79.19;97519.31;5056514;28;20480;-80
2022/02/17 07:18:12;;;;;;;8.50;2.70;;;;;;;7.43;79.47;97528.78;5060482;28;20047;-80
2022/02/17 07:20:41;;;;;;;6.77;2.50;;;;;;;7.43;77.78;97541.94;5089784;28;20055;-81
2022/02/17 07:23:10;;;;;;;7.53;2.50;;;;;;;7.42;79.36;97527.09;5057283;28;20044;-81
2022/02/17 07:25:37;;;;;;;11.70;3.20;;;;;;;7.43;80.69;97542.78;5072624;28;20407;-80
2022/02/17 07:28:04;;;;;;;7.60;2.70;;;;;;;7.34;79.51;97552.03;5053395;28;20048;-81
2022/02/17 07:30:31;;;;;;;8.70;2.80;;;;;;;7.33;79.90;97524.06;5067941;28;20044;-82
2022/02/17 07:32:58;;;;;;;9.30;2.80;;;;;;;7.31;80.35;97553.97;5072324;28;20068;-81
2022/02/17 07:35:29;;;;;;;9.80;3.33;;;;;;;7.20;80.64;97566.84;5056783;28;20565;-81
2022/02/17 07:37:56;;;;;;;6.47;2.43;;;;;;;7.20;81.19;97530.94;5092510;28;20040;-80
2022/02/17 07:40:23;;;;;;;7.47;2.53;;;;;;;7.18;81.11;97553.81;5084069;28;20048;-81
2022/02/17 07:42:50;;;;;;;6.90;2.23;;;;;;;7.14;81.71;97561.94;5067647;28;20478;-80
2022/02/17 07:45:17;;;;;;;7.10;2.27;;;;;;;7.12;82.76;97577.78;5055289;28;20052;-81
2022/02/17 07:47:46;;;;;;;9.57;2.40;;;;;;;7.12;81.76;97577.78;5054763;28;20668;-81
2022/02/17 07:50:19;;;;;;;6.47;2.10;;;;;;;7.12;82.63;97609.28;5052041;28;20079;-81
2022/02/17 07:52:46;;;;;;;9.10;2.13;;;;;;;7.10;82.71;97594.56;5053993;28;20486;-80
2022/02/17 07:55:14;;;;;;;4.07;2.27;;;;;;;7.04;83.06;97590.50;5071983;28;20051;-80
2022/02/17 07:57:41;;;;;;;7.80;2.33;;;;;;;7.06;84.37;97596.50;5072049;28;20028;-80
2022/02/17 08:00:11;;;;;;;7.20;2.00;;;;;;;7.02;85.47;97618.59;5065938;28;20521;-80
2022/02/17 08:02:39;;;;;;;6.97;2.10;;;;;;;6.94;86.15;97620.81;5051163;28;20044;-82
2022/02/17 08:05:06;;;;;;;5.80;2.30;;;;;;;6.87;89.61;97629.94;5071638;28;20044;-81
2022/02/17 08:07:35;;;;;;;6.87;2.70;;;;;;;6.85;93.67;97632.63;5052888;28;20529;-82
2022/02/17 08:10:03;;;;;;;9.83;2.53;;;;;;;6.55;93.85;97615.91;5052872;28;20040;-81
2022/02/17 08:12:29;;;;;;;6.57;2.60;;;;;;;6.55;99.83;97631.63;5069313;28;20421;-80
2022/02/17 08:14:58;;;;;;;5.57;2.17;;;;;;;6.39;100.00;97626.34;5055829;28;20039;-81
2022/02/17 08:17:25;;;;;;;8.30;2.43;;;;;;;6.34;100.00;97657.22;5071515;28;20047;-80
2022/02/17 08:19:52;;;;;;;10.63;2.40;;;;;;;6.24;100.00;97635.03;5053076;28;20040;-78
2022/02/17 08:22:20;;;;;;;9.53;2.10;;;;;;;6.26;100.00;97656.75;5069539;28;20143;-80
2022/02/17 08:24:47;;;;;;;7.97;2.10;;;;;;;6.14;100.00;97661.72;5053268;28;20454;-80
2022/02/17 08:27:16;;;;;;;8.87;2.13;;;;;;;6.11;100.00;97698.53;5063853;28;20044;-80
2022/02/17 08:29:43;;;;;;;8.97;3.53;;;;;;;6.10;100.00;97683.75;5072746;28;20055;-81
2022/02/17 08:32:09;;;;;;;14.73;2.87;;;;;;;6.06;100.00;97697.94;5055308;28;20599;-81
2022/02/17 08:34:36;;;;;;;8.97;3.00;;;;;;;6.04;100.00;97691.91;5071821;28;20044;-81
2022/02/17 08:37:03;;;;;;;13.17;2.83;;;;;;;6.09;100.00;97700.38;5054737;28;20047;-80
2022/02/17 08:39:32;;;;;;;9.30;2.10;;;;;;;6.06;100.00;97716.28;5068633;28;20058;-81
2022/02/17 08:41:59;;;;;;;6.03;2.77;;;;;;;6.08;100.00;97703.94;5061924;28;20090;-80
2022/02/17 08:44:25;;;;;;;4.80;1.80;;;;;;;6.06;100.00;97718.06;5066489;28;20510;-81
2022/02/17 08:46:52;;;;;;;6.97;2.40;;;;;;;6.17;100.00;97726.22;5049029;28;20075;-81
2022/02/17 08:49:19;;;;;;;5.23;2.27;;;;;;;6.18;100.00;97723.53;5051002;28;20470;-82
2022/02/17 08:51:45;;;;;;;3.93;1.80;;;;;;;6.14;100.00;97708.88;5051822;28;20047;-82
2022/02/17 08:54:12;;;;;;;8.37;2.13;;;;;;;6.16;100.00;97738.47;5054783;28;20047;-80
2022/02/17 08:56:44;;;;;;;6.30;1.93;;;;;;;6.15;100.00;97764.78;5068817;28;20046;-81
2022/02/17 08:59:11;;;;;;;10.50;2.70;;;;;;;6.12;100.00;97775.38;5086551;28;20035;-81
2022/02/17 09:01:38;;;;;;;8.20;2.43;;;;;;;6.19;100.00;97740.94;5080136;28;20052;-80
2022/02/17 09:04:05;;;;;;;6.13;2.43;;;;;;;6.24;100.00;97766.94;5055343;28;20127;-82
2022/02/17 09:06:36;;;;;;;6.97;2.67;;;;;;;6.32;100.00;97784.94;5057782;28;20052;-82
2022/02/17 09:09:03;;;;;;;5.80;2.43;;;;;;;6.42;100.00;97786.16;5058066;28;20043;-80
2022/02/17 09:11:31;;;;;;;5.93;2.17;;;;;;;6.47;100.00;97786.75;5090719;28;20040;-79
2022/02/17 09:13:58;;;;;;;5.47;2.70;;;;;;;6.49;100.00;97785.78;5071679;28;20502;-81
2022/02/17 09:16:28;;;;;;;5.53;3.10;;;;;;;6.48;100.00;97798.97;5072261;28;20390;-81
2022/02/17 09:18:57;;;;;;;8.63;2.40;;;;;;;6.46;100.00;97780.66;5067224;28;20072;-81
2022/02/17 09:21:23;;;;;;;9.70;2.57;;;;;;;6.46;100.00;97803.44;5059694;28;20051;-81
2022/02/17 09:23:50;;;;;;;6.13;2.73;;;;;;;6.54;100.00;97824.88;5038957;28;20051;-81
2022/02/17 09:26:18;;;;;;;4.97;1.90;;;;;;;6.65;100.00;97813.88;5054822;28;20040;-80
2022/02/17 09:28:48;;;;;;;5.63;1.57;;;;;;;6.67;100.00;97846.97;5053294;28;20044;-81
2022/02/17 09:31:36;;;;;;;8.43;1.77;;;;;;;6.63;100.00;97834.91;5060414;28;20136;-81
2022/02/17 09:34:02;;;;;;;5.70;2.10;;;;;;;6.55;100.00;97857.19;5072534;28;20542;-80
2022/02/17 09:36:30;;;;;;;4.80;2.20;;;;;;;6.53;100.00;97878.25;5070976;28;20059;-80
2022/02/17 09:38:57;;;;;;;3.97;1.80;;;;;;;6.45;100.00;97880.41;5070725;28;20417;-79
2022/02/17 09:41:24;;;;;;;8.23;1.93;;;;;;;6.48;100.00;97904.72;5070641;28;20040;-81
2022/02/17 09:43:52;;;;;;;5.37;1.80;;;;;;;6.35;100.00;97879.16;5054684;28;20048;-80
2022/02/17 09:46:21;;;;;;;7.27;2.03;;;;;;;6.36;100.00;97896.59;5070665;28;20319;-80
2022/02/17 09:57:12;;;;;;;4.93;1.83;;;;;;;6.28;100.00;97907.44;5077746;28;20144;-81
2022/02/17 09:59:39;;;;;;;5.37;1.67;;;;;;;6.32;100.00;97914.25;5062332;28;20040;-83
2022/02/17 10:02:08;;;;;;;5.80;2.33;;;;;;;6.40;100.00;97927.00;5052611;28;20380;-81
2022/02/17 10:04:36;;;;;;;5.33;2.47;;;;;;;6.35;100.00;97929.81;5053597;28;20043;-82
2022/02/17 10:07:07;;;;;;;6.43;1.90;;;;;;;6.44;100.00;97941.66;5076785;28;20130;-80
2022/02/17 10:09:37;;;;;;;4.33;1.67;;;;;;;6.43;100.00;97953.91;5072090;28;20052;-79
2022/02/17 10:12:05;;;;;;;4.23;2.30;;;;;;;6.57;100.00;97966.38;5063732;28;20514;-83
2022/02/17 10:14:32;;;;;;;5.23;1.73;;;;;;;6.60;100.00;97970.63;5073762;28;20040;-81
2022/02/17 10:17:10;;;;;;;2.67;1.30;;;;;;;6.55;100.00;97959.50;5073821;28;20131;-82
2022/02/17 10:19:40;;;;;;;5.87;1.40;;;;;;;6.58;100.00;97994.31;5056541;28;20043;-81
2022/02/17 10:22:14;;;;;;;4.27;1.40;;;;;;;6.47;100.00;97996.56;5058757;28;20081;-82
2022/02/17 10:24:50;;;;;;;8.00;2.13;;;;;;;6.45;100.00;98011.53;5074218;28;20040;-82
2022/02/17 10:27:26;;;;;;;2.57;1.10;;;;;;;6.39;100.00;98025.81;5075984;28;20075;-83
2022/02/17 10:30:12;;;;;;;8.63;4.53;;;;;;;6.33;100.00;98028.69;5058491;28;20056;-81
2022/02/17 10:32:54;;;;;;;6.07;1.83;;;;;;;6.30;100.00;98044.53;5075081;28;20032;-81
2022/02/17 10:35:20;;;;;;;4.30;1.30;;;;;;;6.29;100.00;98061.19;5067686;28;20059;-81
2022/02/17 10:37:49;;;;;;;3.63;1.57;;;;;;;6.11;100.00;98062.88;5075380;28;20040;-80
2022/02/17 10:40:21;;;;;;;4.53;1.80;;;;;;;6.14;100.00;98091.59;5051941;28;20049;-80
2022/02/17 10:43:11;;;;;;;4.20;1.90;;;;;;;6.14;100.00;98078.47;5071059;28;20037;-79
2022/02/17 10:45:41;;;;;;;9.60;2.47;;;;;;;6.18;100.00;98094.91;5078246;28;20047;-81
2022/02/17 10:48:18;;;;;;;11.07;7.50;;;;;;;6.02;100.00;98099.13;5069903;28;20032;-81
2022/02/17 10:51:03;;;;;;;9.23;4.87;;;;;;;6.08;100.00;98097.09;5072494;28;20664;-80
2022/02/17 10:53:31;;;;;;;4.77;2.03;;;;;;;6.11;100.00;98102.19;5083211;28;20882;-80
2022/02/17 10:56:00;;;;;;;6.77;5.27;;;;;;;6.13;100.00;98112.59;5064302;28;20040;-81
2022/02/17 10:58:32;;;;;;;5.43;2.50;;;;;;;6.13;100.00;98105.59;5054217;28;20044;-82
2022/02/17 11:01:02;;;;;;;6.47;3.37;;;;;;;6.09;100.00;98126.78;5058096;28;20429;-81
2022/02/17 11:03:32;;;;;;;4.93;1.80;;;;;;;6.09;100.00;98122.38;5068580;28;20052;-80
2022/02/17 11:06:12;;;;;;;4.10;1.90;;;;;;;6.01;100.00;98132.34;5072604;28;20047;-81
2022/02/17 11:08:40;;;;;;;7.87;2.00;;;;;;;5.91;100.00;98118.78;5067248;28;20434;-81
2022/02/17 11:11:08;;;;;;;5.77;1.67;;;;;;;6.01;100.00;98150.69;5071885;28;20043;-82
2022/02/17 11:13:35;;;;;;;7.53;3.80;;;;;;;6.03;100.00;98159.31;5090419;28;20046;-81
2022/02/17 11:16:09;;;;;;;9.23;5.17;;;;;;;6.05;100.00;98157.47;5058405;28;20136;-81
2022/02/17 11:18:38;;;;;;;12.63;5.13;;;;;;;6.09;100.00;98153.84;5054758;28;20040;-82
2022/02/17 11:21:05;;;;;;;10.87;4.33;;;;;;;6.09;100.00;98180.03;5047784;28;20044;-81
2022/02/17 11:23:34;;;;;;;6.70;2.00;;;;;;;6.06;100.00;98185.44;5056884;28;20040;-81
2022/02/17 11:26:03;;;;;;;7.07;2.90;;;;;;;6.07;100.00;98207.25;5053950;28;20045;-82
2022/02/17 11:28:36;;;;;;;6.90;2.53;;;;;;;6.07;100.00;98221.22;5055821;28;20040;-81
2022/02/17 11:31:11;;;;;;;25.88;10.20;;;;;;;6.09;100.00;98215.91;5070160;28;20041;-81
2022/02/17 11:33:39;;;;;;;;;;;;;;;6.04;100.00;98220.47;5056677;28;20079;-84
2022/02/17 11:36:22;;;;;;;16.43;6.57;;;;;;;6.06;100.00;98232.59;5054693;28;19919;-83
2022/02/17 11:38:52;;;;;;;10.93;3.00;;;;;;;5.89;100.00;98271.72;5087617;28;20032;-83
2022/02/17 11:41:22;;;;;;;10.10;3.87;;;;;;;6.04;100.00;98268.50;5055595;28;20571;-85
2022/02/17 11:43:51;;;;;;;4.60;1.23;;;;;;;5.97;100.00;98276.66;5057823;28;20092;-85
2022/02/17 11:46:40;;;;;;;2.63;1.33;;;;;;;6.09;100.00;98305.03;5086224;28;20510;-84
2022/02/17 11:49:32;;;;;;;2.00;1.13;;;;;;;6.07;100.00;98288.50;5087647;28;20028;-83
2022/02/17 11:52:08;;;;;;;4.30;1.90;;;;;;;6.04;100.00;98310.44;5067188;28;20041;-82
2022/02/17 11:54:34;;;;;;;5.77;5.33;;;;;;;6.01;100.00;98317.56;5065230;28;20117;-82
2022/02/17 11:57:01;;;;;;;5.03;4.57;;;;;;;6.10;100.00;98320.69;5072338;28;20100;-83
2022/02/17 11:59:29;;;;;;;1.37;1.20;;;;;;;6.13;100.00;98332.81;5052924;28;20399;-84
2022/02/17 12:02:01;;;;;;;5.07;4.60;;;;;;;6.09;100.00;98355.66;5051697;28;20044;-82
2022/02/17 12:04:45;;;;;;;2.10;1.90;;;;;;;6.03;100.00;98384.72;5070187;28;20501;-84
2022/02/17 12:07:30;;;;;;;2.10;0.90;;;;;;;5.60;100.00;98412.50;5087473;28;20035;-83
2022/02/17 12:09:57;;;;;;;2.10;1.90;;;;;;;5.52;100.00;98455.59;5071815;28;20066;-82
2022/02/17 12:12:35;;;;;;;1.30;0.90;;;;;;;5.29;100.00;98445.91;5065519;28;20052;-83
2022/02/17 12:15:05;;;;;;;1.57;0.80;;;;;;;5.09;100.00;98452.69;5044585;28;20048;-82
2022/02/17 12:17:34;;;;;;;0.80;0.50;;;;;;;5.02;100.00;98464.28;5039294;28;20048;-83
2022/02/17 12:20:22;;;;;;;1.23;0.40;;;;;;;4.66;100.00;98466.34;5072116;28;20076;-83
2022/02/17 12:22:59;;;;;;;1.90;0.70;;;;;;;4.60;100.00;98483.97;5085054;28;20052;-83
2022/02/17 12:25:28;;;;;;;1.67;1.13;;;;;;;4.67;100.00;98485.50;5080465;28;20491;-83
2022/02/17 12:28:00;;;;;;;4.47;1.83;;;;;;;4.69;100.00;98494.13;5054446;28;20051;-84
2022/02/17 12:30:33;;;;;;;1.40;0.50;;;;;;;4.76;100.00;98499.13;5087438;28;20039;-84
2022/02/17 12:33:05;;;;;;;1.57;0.70;;;;;;;4.75;100.00;98512.25;5071442;28;20074;-83
2022/02/17 12:35:33;;;;;;;1.83;0.67;;;;;;;4.80;100.00;98520.84;5069570;28;20055;-83
2022/02/17 12:38:01;;;;;;;0.93;0.50;;;;;;;4.72;100.00;98526.31;5085743;28;20051;-84
2022/02/17 12:40:29;;;;;;;0.30;0.20;;;;;;;4.73;100.00;98535.00;5051565;28;20517;-83
2022/02/17 12:42:57;;;;;;;1.13;0.20;;;;;;;4.80;100.00;98550.47;5053447;28;20573;-82
2022/02/17 12:45:39;;;;;;;0.40;0.30;;;;;;;4.82;100.00;98539.09;5044000;28;20045;-83
2022/02/17 12:48:07;;;;;;;0.63;0.43;;;;;;;4.88;100.00;98545.00;5034144;28;20046;-83
2022/02/17 12:50:54;;;;;;;1.20;1.00;;;;;;;4.92;100.00;98543.13;5054031;28;20040;-84
2022/02/17 12:53:20;;;;;;;1.10;0.77;;;;;;;4.97;100.00;98560.41;5053879;28;20094;-86
2022/02/17 12:55:53;;;;;;;2.10;0.87;;;;;;;5.06;100.00;98565.34;5069220;28;20044;-84
2022/02/17 12:58:26;;;;;;;2.13;1.03;;;;;;;5.11;100.00;98570.41;5046170;28;20036;-84
2022/02/17 13:00:53;;;;;;;1.83;0.93;;;;;;;5.14;100.00;98580.81;5067708;28;20048;-83
2022/02/17 13:03:52;;;;;;;2.20;1.17;;;;;;;5.16;100.00;98584.22;5085031;28;20123;-85
2022/02/17 13:06:26;;;;;;;3.57;1.43;;;;;;;5.23;100.00;98593.59;5044402;28;20051;-84
2022/02/17 13:09:19;;;;;;;1.73;0.63;;;;;;;5.24;100.00;98603.16;5050799;28;20040;-83
2022/02/17 13:11:51;;;;;;;1.33;0.90;;;;;;;5.25;100.00;98617.97;5074360;28;20111;-83
2022/02/17 13:14:19;;;;;;;1.30;0.87;;;;;;;5.19;100.00;98597.22;5069226;28;20051;-83
2022/02/17 13:16:48;;;;;;;0.70;0.70;;;;;;;5.13;100.00;98613.13;5051645;28;20044;-83
2022/02/17 13:19:41;;;;;;;1.63;1.10;;;;;;;5.27;100.00;98610.91;5070368;28;20039;-82
2022/02/17 13:22:21;;;;;;;;;;;;;;;5.11;100.00;98624.53;5053782;28;20049;-85
2022/02/17 13:24:54;;;;;;;2.10;1.10;;;;;;;5.24;100.00;98618.03;5051356;28;19924;-81
2022/02/17 13:27:21;;;;;;;1.20;0.90;;;;;;;5.26;100.00;98635.38;5053513;28;20039;-85
2022/02/17 13:30:00;;;;;;;0.80;0.70;;;;;;;5.31;100.00;98635.25;5051577;28;20098;-81
2022/02/17 13:32:32;;;;;;;1.00;0.70;;;;;;;5.28;100.00;98622.25;5055189;28;20574;-85
2022/02/17 13:35:06;;;;;;;1.40;1.10;;;;;;;5.24;100.00;98634.59;5071870;28;20658;-83
2022/02/17 13:37:55;;;;;;;2.10;1.40;;;;;;;5.15;100.00;98634.00;5045792;28;20051;-82